Terminal Aerodrome Forecast
Issued by NWS

Home | Current Version | Previous Version | Text Only | Print | Product List | Glossary On
Versions: 1 2 3 4 5 6 7 8 9 10 11 12 13 14 15 16 17 18 19
000
FTUS41 KILN 291734
TAFLCK
TAF
KLCK 291734Z 2918/3018 24005KT P6SM SCT040 BKN200
     FM292000 27008KT P6SM VCTS BKN035CB
     FM300000 29007KT P6SM SCT120
     FM300600 34006KT P6SM SCT020
     FM301400 31007KT P6SM FEW035=

USA.gov is the U.S. government's official web portal to all federal, state and local government web resources and services.